Time;durP1;ratioP1;P1;durP2;ratioP2;P2;SDS_P1;SDS_P2;PMS_P1;PMS_P2;Temp;Humidity;BMP_temperature;BMP_pressure;BME280_temperature;BME280_humidity;BME280_pressure;Samples;Min_cycle;Max_cycle;Signal;HPM_P1;HPM_P2
2021/03/11 00:01:11;;;;;;;4.13;3.60;;;;;;;;;;6418939;22;20203;-94
2021/03/11 00:03:38;;;;;;;6.73;3.97;;;;;;;;;;6414984;22;20169;-92
2021/03/11 00:06:04;;;;;;;3.95;3.33;;;;;;;;;;6384863;22;20415;-93
2021/03/11 00:08:30;;;;;;;8.05;3.75;;;;;;;;;;6414998;22;20529;-90
2021/03/11 00:10:56;;;;;;;6.90;4.63;;;;;;;;;;6412920;22;20188;-92
2021/03/11 00:13:22;;;;;;;7.10;4.23;;;;;;;;;;6410866;22;20414;-92
2021/03/11 00:15:48;;;;;;;5.27;3.70;;;;;;;;;;6415578;22;20427;-90
2021/03/11 00:18:14;;;;;;;4.40;3.57;;;;;;;;;;6412447;22;20478;-92
2021/03/11 00:20:41;;;;;;;6.80;5.25;;;;;;;;;;6416700;22;20516;-91
2021/03/11 00:23:07;;;;;;;6.80;3.50;;;;;;;;;;6417916;22;20184;-91
2021/03/11 00:25:34;;;;;;;4.70;4.15;;;;;;;;;;6421975;22;20176;-92
2021/03/11 00:28:01;;;;;;;4.22;3.80;;;;;;;;;;6416562;22;20178;-93
2021/03/11 00:30:27;;;;;;;4.00;3.70;;;;;;;;;;6415295;22;20186;-93
2021/03/11 00:32:53;;;;;;;3.60;3.30;;;;;;;;;;6416457;22;20176;-96
2021/03/11 00:35:20;;;;;;;3.90;3.47;;;;;;;;;;6416069;22;20204;-92
2021/03/11 00:37:48;;;;;;;3.30;2.97;;;;;;;;;;6388299;22;20541;-95
2021/03/11 00:40:15;;;;;;;4.95;3.92;;;;;;;;;;6416026;22;20217;-91
2021/03/11 00:42:41;;;;;;;5.07;3.70;;;;;;;;;;6414906;22;20177;-93
2021/03/11 00:45:08;;;;;;;4.75;3.88;;;;;;;;;;6413033;22;20177;-93
2021/03/11 00:47:34;;;;;;;3.53;3.22;;;;;;;;;;6414879;22;20554;-92
2021/03/11 00:50:00;;;;;;;4.70;3.22;;;;;;;;;;6413106;22;20182;-92
2021/03/11 00:52:26;;;;;;;4.10;3.70;;;;;;;;;;6414036;22;20180;-92
2021/03/11 00:54:53;;;;;;;3.47;3.17;;;;;;;;;;6412982;22;20418;-94
2021/03/11 00:57:19;;;;;;;3.75;3.22;;;;;;;;;;6415463;22;20173;-94
2021/03/11 00:59:45;;;;;;;3.40;3.10;;;;;;;;;;6412702;22;20189;-92
2021/03/11 01:02:11;;;;;;;4.03;3.67;;;;;;;;;;6413768;22;20406;-94
2021/03/11 01:04:37;;;;;;;3.25;2.95;;;;;;;;;;6412188;22;20470;-92
2021/03/11 01:07:03;;;;;;;3.30;2.97;;;;;;;;;;6413943;22;20230;-93
2021/03/11 01:09:29;;;;;;;3.95;3.55;;;;;;;;;;6415820;22;20188;-94
2021/03/11 01:11:58;;;;;;;4.50;4.10;;;;;;;;;;6413327;22;20171;-93
2021/03/11 01:14:24;;;;;;;6.78;3.47;;;;;;;;;;6384905;22;20184;-94
2021/03/11 01:16:51;;;;;;;5.30;4.80;;;;;;;;;;6382107;22;20186;-93
2021/03/11 01:19:17;;;;;;;4.55;2.65;;;;;;;;;;6415609;22;20171;-94
2021/03/11 01:21:43;;;;;;;6.35;4.65;;;;;;;;;;6411413;22;20277;-93
2021/03/11 01:24:09;;;;;;;4.28;3.88;;;;;;;;;;6411813;22;20178;-93
2021/03/11 01:26:35;;;;;;;3.92;2.92;;;;;;;;;;6413585;22;20201;-93
2021/03/11 01:29:03;;;;;;;4.25;3.22;;;;;;;;;;6413606;22;20198;-93
2021/03/11 01:31:29;;;;;;;4.00;3.30;;;;;;;;;;6412101;22;20173;-92
2021/03/11 01:33:55;;;;;;;3.85;3.45;;;;;;;;;;6412524;22;20198;-92
2021/03/11 01:36:21;;;;;;;3.38;3.05;;;;;;;;;;6414291;22;20188;-92
2021/03/11 01:38:47;;;;;;;2.87;2.60;;;;;;;;;;6414557;22;20176;-95
2021/03/11 01:41:13;;;;;;;3.25;2.95;;;;;;;;;;6412800;22;20457;-91
2021/03/11 01:43:40;;;;;;;3.10;2.80;;;;;;;;;;6413617;22;20168;-93
2021/03/11 01:46:07;;;;;;;2.38;2.17;;;;;;;;;;6413366;22;20198;-93
2021/03/11 01:48:33;;;;;;;3.60;3.30;;;;;;;;;;6412249;22;20180;-91
2021/03/11 01:50:59;;;;;;;3.15;2.85;;;;;;;;;;6412128;22;20202;-89
2021/03/11 01:53:25;;;;;;;3.30;2.97;;;;;;;;;;6411475;22;20181;-90
2021/03/11 01:55:51;;;;;;;3.23;2.90;;;;;;;;;;6416061;22;20537;-95
2021/03/11 01:58:17;;;;;;;3.50;2.80;;;;;;;;;;6411861;22;20417;-90
2021/03/11 02:00:46;;;;;;;3.17;2.88;;;;;;;;;;6413369;22;20208;-95
2021/03/11 02:03:13;;;;;;;2.60;2.40;;;;;;;;;;6412297;22;20346;-92
2021/03/11 02:05:41;;;;;;;2.88;2.67;;;;;;;;;;6411584;22;20187;-95
2021/03/11 02:08:07;;;;;;;3.10;2.47;;;;;;;;;;6410442;22;20165;-94
2021/03/11 02:10:33;;;;;;;4.25;3.70;;;;;;;;;;6415207;22;20176;-93
2021/03/11 02:13:12;;;;;;;4.05;3.22;;;;;;;;;;6411480;22;20519;-93
2021/03/11 02:15:41;;;;;;;3.95;3.55;;;;;;;;;;6413350;22;20196;-93
2021/03/11 02:18:11;;;;;;;3.40;2.92;;;;;;;;;;6412996;22;20200;-94
2021/03/11 02:20:48;;;;;;;3.75;3.15;;;;;;;;;;6415115;22;20204;-92
2021/03/11 02:23:37;;;;;;;2.47;1.95;;;;;;;;;;6411742;22;20185;-92
2021/03/11 02:26:10;;;;;;;3.60;2.90;;;;;;;;;;6365179;22;20183;-92
2021/03/11 02:28:37;;;;;;;4.68;2.47;;;;;;;;;;6414027;22;20230;-94
2021/03/11 02:31:04;;;;;;;3.25;2.95;;;;;;;;;;6412700;22;20180;-93
2021/03/11 02:33:31;;;;;;;2.50;1.88;;;;;;;;;;6415577;22;20455;-94
2021/03/11 02:36:01;;;;;;;3.05;2.63;;;;;;;;;;6420072;22;20530;-93
2021/03/11 02:38:28;;;;;;;4.35;3.30;;;;;;;;;;6416159;22;20173;-91
2021/03/11 02:40:57;;;;;;;3.35;3.03;;;;;;;;;;6415053;22;20216;-92
2021/03/11 02:43:23;;;;;;;4.47;3.47;;;;;;;;;;6413519;22;20567;-91
2021/03/11 02:45:50;;;;;;;4.13;2.90;;;;;;;;;;6413567;22;20423;-94
2021/03/11 02:48:17;;;;;;;3.47;2.65;;;;;;;;;;6414404;22;20711;-93
2021/03/11 02:50:44;;;;;;;3.17;2.72;;;;;;;;;;6414364;22;20173;-95
2021/03/11 02:53:12;;;;;;;3.80;3.22;;;;;;;;;;6414847;22;20711;-94
2021/03/11 02:55:40;;;;;;;2.50;2.25;;;;;;;;;;6413101;22;20184;-96
2021/03/11 02:58:08;;;;;;;2.83;2.55;;;;;;;;;;6417421;22;20184;-94
2021/03/11 03:00:35;;;;;;;2.83;2.50;;;;;;;;;;6412059;22;20193;-92
2021/03/11 03:03:01;;;;;;;2.92;2.50;;;;;;;;;;6415600;22;20197;-94
2021/03/11 03:05:30;;;;;;;2.67;2.40;;;;;;;;;;6412822;22;20172;-93
2021/03/11 03:07:56;;;;;;;3.58;2.40;;;;;;;;;;6415011;22;20187;-92
2021/03/11 03:10:23;;;;;;;3.35;2.20;;;;;;;;;;6413473;22;20203;-91
2021/03/11 03:12:53;;;;;;;3.35;2.25;;;;;;;;;;6416104;22;20182;-96
2021/03/11 03:15:28;;;;;;;2.30;1.90;;;;;;;;;;6416047;22;20187;-96
2021/03/11 03:18:01;;;;;;;2.95;2.25;;;;;;;;;;6420094;22;20671;-94
2021/03/11 03:20:28;;;;;;;3.20;2.90;;;;;;;;;;6386524;22;20203;-93
2021/03/11 03:22:54;;;;;;;3.63;3.00;;;;;;;;;;6413074;22;20168;-93
2021/03/11 03:25:20;;;;;;;8.20;2.70;;;;;;;;;;6411313;22;20180;-94
2021/03/11 03:27:46;;;;;;;4.60;3.00;;;;;;;;;;6411689;22;20176;-93
2021/03/11 03:30:16;;;;;;;2.70;1.90;;;;;;;;;;6415797;22;20258;-93
2021/03/11 03:32:42;;;;;;;6.30;3.13;;;;;;;;;;6414279;22;20441;-93
2021/03/11 03:35:10;;;;;;;7.53;3.55;;;;;;;;;;6413061;22;20192;-93
2021/03/11 03:37:37;;;;;;;4.82;3.33;;;;;;;;;;6412410;22;20303;-92
2021/03/11 03:40:04;;;;;;;5.35;2.88;;;;;;;;;;6417640;22;20172;-93
2021/03/11 03:42:31;;;;;;;2.83;2.63;;;;;;;;;;6414749;22;20177;-93
2021/03/11 03:44:57;;;;;;;3.45;2.70;;;;;;;;;;6412548;22;20215;-93
2021/03/11 03:47:24;;;;;;;5.78;2.70;;;;;;;;;;6411683;22;20160;-93
2021/03/11 03:49:50;;;;;;;4.13;3.10;;;;;;;;;;6414823;22;20177;-91
2021/03/11 03:52:16;;;;;;;4.40;2.63;;;;;;;;;;6414573;22;20177;-92
2021/03/11 03:54:44;;;;;;;4.18;2.80;;;;;;;;;;6386261;22;20175;-93
2021/03/11 03:57:13;;;;;;;3.22;2.72;;;;;;;;;;6416932;22;20197;-95
2021/03/11 03:59:40;;;;;;;4.68;2.67;;;;;;;;;;6415729;22;20750;-92
2021/03/11 04:02:06;;;;;;;5.65;2.60;;;;;;;;;;6414607;22;20196;-93
2021/03/11 04:04:33;;;;;;;3.95;3.15;;;;;;;;;;6414285;22;20173;-93
2021/03/11 04:07:00;;;;;;;3.53;2.83;;;;;;;;;;6414401;22;20168;-94
2021/03/11 04:09:27;;;;;;;3.63;3.30;;;;;;;;;;6413603;22;20175;-94
2021/03/11 04:11:57;;;;;;;3.25;2.70;;;;;;;;;;6414512;22;20254;-96
2021/03/11 04:14:24;;;;;;;7.28;3.40;;;;;;;;;;6413163;22;20179;-92
2021/03/11 04:16:51;;;;;;;3.75;3.40;;;;;;;;;;6410423;22;20172;-93
2021/03/11 04:19:18;;;;;;;3.78;3.05;;;;;;;;;;6411072;22;20171;-92
2021/03/11 04:21:44;;;;;;;3.80;3.08;;;;;;;;;;6413666;22;20195;-92
2021/03/11 04:24:10;;;;;;;13.60;3.88;;;;;;;;;;6412941;22;20175;-90
2021/03/11 04:26:37;;;;;;;6.35;3.90;;;;;;;;;;6417336;22;20244;-91
2021/03/11 04:29:05;;;;;;;5.25;3.38;;;;;;;;;;6412455;22;20339;-92
2021/03/11 04:31:31;;;;;;;4.25;3.50;;;;;;;;;;6414633;22;20167;-92
2021/03/11 04:33:58;;;;;;;4.00;2.75;;;;;;;;;;6411050;22;20196;-94
2021/03/11 04:36:24;;;;;;;8.98;3.08;;;;;;;;;;6413649;22;20221;-93
2021/03/11 04:38:51;;;;;;;6.13;3.88;;;;;;;;;;6413686;22;20172;-93
2021/03/11 04:41:17;;;;;;;4.93;3.20;;;;;;;;;;6413470;22;20226;-93
2021/03/11 04:43:43;;;;;;;6.43;3.42;;;;;;;;;;6413639;22;21111;-92
2021/03/11 04:46:11;;;;;;;3.90;3.08;;;;;;;;;;6415471;22;20178;-95
2021/03/11 04:48:40;;;;;;;3.10;2.80;;;;;;;;;;6414627;22;20182;-96
2021/03/11 04:51:06;;;;;;;3.30;3.00;;;;;;;;;;6415954;22;20183;-93
2021/03/11 04:53:33;;;;;;;4.13;3.58;;;;;;;;;;6413702;22;20173;-90
2021/03/11 04:55:59;;;;;;;4.68;3.72;;;;;;;;;;6414890;22;20171;-95
2021/03/11 04:58:25;;;;;;;7.03;3.35;;;;;;;;;;6414508;22;20807;-92
2021/03/11 05:00:53;;;;;;;2.83;2.53;;;;;;;;;;6416656;22;20218;-90
2021/03/11 05:03:20;;;;;;;6.07;3.35;;;;;;;;;;6412856;22;20404;-92
2021/03/11 05:05:46;;;;;;;4.30;3.30;;;;;;;;;;6410045;22;20170;-94
2021/03/11 05:08:16;;;;;;;3.80;2.92;;;;;;;;;;6416480;22;20187;-96
2021/03/11 05:10:42;;;;;;;4.95;2.95;;;;;;;;;;6411962;22;20178;-93
2021/03/11 05:13:08;;;;;;;7.63;4.32;;;;;;;;;;6412183;22;20176;-90
2021/03/11 05:15:36;;;;;;;4.23;3.60;;;;;;;;;;6411796;22;20230;-96
2021/03/11 05:18:02;;;;;;;7.18;3.38;;;;;;;;;;6414492;22;20401;-92
2021/03/11 05:20:29;;;;;;;4.15;3.05;;;;;;;;;;6415473;22;20226;-91
2021/03/11 05:22:55;;;;;;;5.45;3.38;;;;;;;;;;6415710;22;20210;-96
2021/03/11 05:25:21;;;;;;;7.38;4.07;;;;;;;;;;6410474;22;20178;-92
2021/03/11 05:27:48;;;;;;;6.43;4.00;;;;;;;;;;6409565;22;20309;-92
2021/03/11 05:30:14;;;;;;;7.35;3.30;;;;;;;;;;6412255;22;21084;-90
2021/03/11 05:32:40;;;;;;;4.95;3.97;;;;;;;;;;6414304;22;20171;-92
2021/03/11 05:35:08;;;;;;;4.10;3.70;;;;;;;;;;6412927;22;20221;-91
2021/03/11 05:37:35;;;;;;;6.25;4.38;;;;;;;;;;6411650;22;20487;-91
2021/03/11 05:40:03;;;;;;;3.95;2.50;;;;;;;;;;6414207;22;20235;-92
2021/03/11 05:42:29;;;;;;;9.77;6.35;;;;;;;;;;6410761;22;20203;-92
2021/03/11 05:44:57;;;;;;;6.93;4.65;;;;;;;;;;6385905;22;20259;-92
2021/03/11 05:47:23;;;;;;;5.65;4.80;;;;;;;;;;6411633;22;20513;-92
2021/03/11 05:49:49;;;;;;;9.52;4.15;;;;;;;;;;6412845;22;20180;-92
2021/03/11 05:52:15;;;;;;;6.28;4.18;;;;;;;;;;6410546;22;20176;-92
2021/03/11 05:54:43;;;;;;;5.83;4.30;;;;;;;;;;6410370;22;20233;-92
2021/03/11 05:57:09;;;;;;;5.32;3.38;;;;;;;;;;6407869;22;20408;-91
2021/03/11 05:59:35;;;;;;;5.68;3.40;;;;;;;;;;6411691;22;20221;-94
2021/03/11 06:02:04;;;;;;;3.00;2.65;;;;;;;;;;6415720;22;20204;-93
2021/03/11 06:04:30;;;;;;;8.38;4.43;;;;;;;;;;6412616;22;20194;-93
2021/03/11 06:06:57;;;;;;;6.88;3.55;;;;;;;;;;6410907;22;20173;-93
2021/03/11 06:09:23;;;;;;;4.65;3.50;;;;;;;;;;6413544;22;20176;-92
2021/03/11 06:11:50;;;;;;;7.38;4.50;;;;;;;;;;6410737;22;20192;-89
2021/03/11 06:14:16;;;;;;;9.63;4.35;;;;;;;;;;6412434;22;20855;-91
2021/03/11 06:16:47;;;;;;;5.95;4.40;;;;;;;;;;6415734;22;20177;-93
2021/03/11 06:19:13;;;;;;;7.05;5.18;;;;;;;;;;6411870;22;20173;-91
2021/03/11 06:21:42;;;;;;;4.22;3.55;;;;;;;;;;6413461;22;20199;-91
2021/03/11 06:24:09;;;;;;;4.80;3.70;;;;;;;;;;6415795;22;20227;-90
2021/03/11 06:26:35;;;;;;;4.88;4.38;;;;;;;;;;6409201;22;20172;-90
2021/03/11 06:29:02;;;;;;;10.13;6.35;;;;;;;;;;6409465;22;20179;-91
2021/03/11 06:31:29;;;;;;;4.97;3.92;;;;;;;;;;6413231;22;20194;-95
2021/03/11 06:33:56;;;;;;;4.57;3.30;;;;;;;;;;6410689;22;20185;-92
2021/03/11 06:36:22;;;;;;;5.30;3.80;;;;;;;;;;6408474;22;20196;-91
2021/03/11 06:38:49;;;;;;;10.77;5.90;;;;;;;;;;6410070;22;20650;-89
2021/03/11 06:41:15;;;;;;;5.00;3.45;;;;;;;;;;6410587;22;20205;-92
2021/03/11 06:43:55;;;;;;;3.63;3.20;;;;;;;;;;6412016;22;20241;-96
2021/03/11 06:46:22;;;;;;;4.57;3.55;;;;;;;;;;6415423;22;20203;-92
2021/03/11 06:48:48;;;;;;;5.05;4.20;;;;;;;;;;6414879;22;20177;-91
2021/03/11 06:51:18;;;;;;;5.47;3.85;;;;;;;;;;6415840;22;20178;-91
2021/03/11 06:53:56;;;;;;;5.78;2.85;;;;;;;;;;6414402;22;20232;-94
2021/03/11 06:56:23;;;;;;;7.13;3.05;;;;;;;;;;6415225;22;20184;-91
2021/03/11 06:58:59;;;;;;;5.32;3.35;;;;;;;;;;6413452;22;20179;-91
2021/03/11 07:01:26;;;;;;;9.60;4.05;;;;;;;;;;6421259;22;20200;-91
2021/03/11 07:03:53;;;;;;;4.20;2.95;;;;;;;;;;6416572;22;20178;-90
2021/03/11 07:06:27;;;;;;;6.55;4.13;;;;;;;;;;6414227;22;20174;-90
2021/03/11 07:08:59;;;;;;;5.00;3.75;;;;;;;;;;6414332;22;20743;-95
2021/03/11 07:11:26;;;;;;;5.38;3.63;;;;;;;;;;6418581;22;20551;-91
2021/03/11 07:13:54;;;;;;;5.00;3.47;;;;;;;;;;6420911;22;20167;-91
2021/03/11 07:16:21;;;;;;;11.45;6.22;;;;;;;;;;6392051;22;20221;-94
2021/03/11 07:19:02;;;;;;;6.45;4.07;;;;;;;;;;6418585;22;20183;-95
2021/03/11 07:21:40;;;;;;;4.95;3.88;;;;;;;;;;6412859;22;20197;-95
2021/03/11 07:24:06;;;;;;;7.03;4.38;;;;;;;;;;6415390;22;20226;-90
2021/03/11 07:26:39;;;;;;;4.30;3.10;;;;;;;;;;6418159;22;20167;-96
2021/03/11 07:29:17;;;;;;;5.95;3.80;;;;;;;;;;6421028;22;20205;-92
2021/03/11 07:32:12;;;;;;;4.43;3.50;;;;;;;;;;6413384;22;20336;-94
2021/03/11 07:34:41;;;;;;;6.53;3.88;;;;;;;;;;6416095;22;20265;-90
2021/03/11 07:37:09;;;;;;;3.70;3.00;;;;;;;;;;6416458;22;20177;-94
2021/03/11 07:39:50;;;;;;;3.95;2.83;;;;;;;;;;6420778;22;20187;-95
2021/03/11 07:42:21;;;;;;;3.17;2.55;;;;;;;;;;6423221;22;20228;-93
2021/03/11 07:44:48;;;;;;;4.73;2.30;;;;;;;;;;6417781;22;20171;-92
2021/03/11 07:47:17;;;;;;;5.93;4.03;;;;;;;;;;6395138;22;20469;-95
2021/03/11 07:49:46;;;;;;;6.25;4.13;;;;;;;;;;6419135;22;20246;-90
2021/03/11 07:52:14;;;;;;;3.75;2.97;;;;;;;;;;6418997;22;20168;-93
2021/03/11 07:54:45;;;;;;;5.20;3.45;;;;;;;;;;6417915;22;20198;-93
2021/03/11 07:57:11;;;;;;;4.85;3.10;;;;;;;;;;6412200;22;20568;-91
2021/03/11 07:59:43;;;;;;;4.93;3.50;;;;;;;;;;6414064;22;20177;-89
2021/03/11 08:02:15;;;;;;;3.90;2.37;;;;;;;;;;6416764;22;20206;-93
2021/03/11 08:04:47;;;;;;;5.25;2.50;;;;;;;;;;6420669;22;20427;-92
2021/03/11 08:07:19;;;;;;;4.32;3.50;;;;;;;;;;6387984;22;20858;-94
2021/03/11 08:09:46;;;;;;;4.68;3.45;;;;;;;;;;6419887;22;20170;-90
2021/03/11 08:12:30;;;;;;;2.45;2.25;;;;;;;;;;6414555;22;20209;-93
2021/03/11 08:14:56;;;;;;;3.47;3.13;;;;;;;;;;6412823;22;20207;-93
2021/03/11 08:17:38;;;;;;;2.55;2.30;;;;;;;;;;6413645;22;20404;-89
2021/03/11 08:20:06;;;;;;;1.63;1.52;;;;;;;;;;6418521;22;20231;-94
2021/03/11 08:22:56;;;;;;;1.70;1.60;;;;;;;;;;6416263;22;20206;-92
2021/03/11 08:25:41;;;;;;;2.40;2.20;;;;;;;;;;6389224;22;20411;-93
2021/03/11 08:28:30;;;;;;;2.67;2.47;;;;;;;;;;6419631;22;20571;-93
2021/03/11 08:31:06;;;;;;;1.48;1.38;;;;;;;;;;6419327;22;20231;-94
2021/03/11 08:36:46;;;;;;;4.45;2.67;;;;;;;;;;6421830;22;20429;-96
2021/03/11 08:39:36;;;;;;;4.93;1.98;;;;;;;;;;6418425;22;20192;-93
2021/03/11 08:42:25;;;;;;;2.90;2.70;;;;;;;;;;6422534;22;20199;-95
2021/03/11 08:44:54;;;;;;;2.00;1.80;;;;;;;;;;6423213;22;20230;-94
2021/03/11 08:47:35;;;;;;;5.28;2.75;;;;;;;;;;6421088;22;20917;-91
2021/03/11 08:50:07;;;;;;;2.27;2.07;;;;;;;;;;6423090;22;20203;-95
2021/03/11 08:52:43;;;;;;;4.00;3.30;;;;;;;;;;6421713;22;20396;-94
2021/03/11 08:55:28;;;;;;;2.57;2.00;;;;;;;;;;6418903;22;20191;-94
2021/03/11 09:00:57;;;;;;;3.00;2.50;;;;;;;;;;6419379;22;20892;-94
2021/03/11 09:03:42;;;;;;;6.00;2.97;;;;;;;;;;6418518;22;20408;-94
2021/03/11 09:06:09;;;;;;;7.15;3.53;;;;;;;;;;6413861;22;20258;-89
2021/03/11 09:08:36;;;;;;;6.17;4.40;;;;;;;;;;6416068;22;20641;-90
2021/03/11 09:11:13;;;;;;;7.57;3.80;;;;;;;;;;6419143;22;20407;-95
2021/03/11 09:13:46;;;;;;;7.17;4.20;;;;;;;;;;6407417;22;21395;-96
2021/03/11 09:16:15;;;;;;;4.43;2.70;;;;;;;;;;6417599;22;20485;-94
2021/03/11 09:18:43;;;;;;;6.50;4.25;;;;;;;;;;6413140;22;20407;-90
2021/03/11 09:21:10;;;;;;;3.80;3.50;;;;;;;;;;6417634;22;20198;-93
2021/03/11 09:23:41;;;;;;;7.00;4.33;;;;;;;;;;6420315;22;20473;-94
2021/03/11 09:29:08;;;;;;;3.70;3.13;;;;;;;;;;6420766;22;20405;-93
2021/03/11 09:31:34;;;;;;;3.70;3.30;;;;;;;;;;6388875;22;20401;-91
2021/03/11 09:34:02;;;;;;;4.27;3.87;;;;;;;;;;6420906;22;20433;-91
2021/03/11 09:36:31;;;;;;;3.87;3.40;;;;;;;;;;6416273;22;20455;-95
2021/03/11 09:39:10;;;;;;;5.40;3.15;;;;;;;;;;6422453;22;20472;-92
2021/03/11 09:41:38;;;;;;;4.40;3.20;;;;;;;;;;6416870;22;20202;-88
2021/03/11 09:44:04;;;;;;;4.80;3.33;;;;;;;;;;6417287;22;20404;-90
2021/03/11 09:46:31;;;;;;;2.03;1.90;;;;;;;;;;6424063;22;20401;-94
2021/03/11 09:48:58;;;;;;;4.03;3.23;;;;;;;;;;6417833;22;20397;-89
2021/03/11 09:51:25;;;;;;;4.30;3.40;;;;;;;;;;6407804;22;20413;-88
2021/03/11 09:54:09;;;;;;;3.73;3.30;;;;;;;;;;6413259;22;20399;-93
2021/03/11 09:56:39;;;;;;;3.43;3.13;;;;;;;;;;6410704;22;20395;-93
2021/03/11 09:59:06;;;;;;;4.10;3.30;;;;;;;;;;6406918;22;20419;-94
2021/03/11 10:01:33;;;;;;;8.43;3.30;;;;;;;;;;6403623;22;20449;-92
2021/03/11 10:04:01;;;;;;;4.30;3.63;;;;;;;;;;6409187;22;20401;-93
2021/03/11 10:06:40;;;;;;;5.17;3.50;;;;;;;;;;6414808;22;20466;-96
2021/03/11 10:09:17;;;;;;;3.33;2.50;;;;;;;;;;6420867;22;20404;-94
2021/03/11 10:11:45;;;;;;;4.67;3.30;;;;;;;;;;6418260;22;20404;-91
2021/03/11 10:14:15;;;;;;;2.50;2.30;;;;;;;;;;6422654;22;20400;-94
2021/03/11 10:16:43;;;;;;;4.77;3.33;;;;;;;;;;6416194;22;20428;-95
2021/03/11 10:19:12;;;;;;;3.70;3.23;;;;;;;;;;6420671;22;20432;-92
2021/03/11 10:21:48;;;;;;;6.23;3.20;;;;;;;;;;6416472;22;20466;-89
2021/03/11 10:24:29;;;;;;;6.53;3.20;;;;;;;;;;6419037;22;20393;-95
2021/03/11 10:26:57;;;;;;;2.97;2.47;;;;;;;;;;6419525;22;20394;-94
2021/03/11 10:29:27;;;;;;;4.00;3.63;;;;;;;;;;6418068;22;20433;-96
2021/03/11 10:31:56;;;;;;;4.10;2.90;;;;;;;;;;6420090;22;20766;-95
2021/03/11 10:34:23;;;;;;;5.60;3.43;;;;;;;;;;6420870;22;20403;-96
2021/03/11 10:36:56;;;;;;;2.60;2.40;;;;;;;;;;6392985;22;20465;-96
2021/03/11 10:39:30;;;;;;;3.60;2.93;;;;;;;;;;6423239;22;20407;-96
2021/03/11 10:42:07;;;;;;;4.13;3.50;;;;;;;;;;6423875;22;20472;-95
2021/03/11 10:44:42;;;;;;;7.90;2.73;;;;;;;;;;6419371;22;20416;-95
2021/03/11 10:47:15;;;;;;;5.37;3.83;;;;;;;;;;6394578;22;20409;-94
2021/03/11 10:49:47;;;;;;;3.30;3.00;;;;;;;;;;6417988;22;20438;-93
2021/03/11 10:52:14;;;;;;;5.40;3.70;;;;;;;;;;6422151;22;20408;-90
2021/03/11 10:54:41;;;;;;;5.27;4.43;;;;;;;;;;6422979;22;20405;-90
2021/03/11 10:57:10;;;;;;;4.50;3.60;;;;;;;;;;6423074;22;20401;-93
2021/03/11 10:59:49;;;;;;;6.40;4.13;;;;;;;;;;6413809;22;20421;-91
2021/03/11 11:02:15;;;;;;;3.40;3.10;;;;;;;;;;6423864;22;20437;-94
2021/03/11 11:04:41;;;;;;;4.70;4.10;;;;;;;;;;6421326;22;20413;-93
2021/03/11 11:07:09;;;;;;;5.03;3.57;;;;;;;;;;6422359;22;20397;-94
2021/03/11 11:09:35;;;;;;;5.10;2.77;;;;;;;;;;6424316;22;20404;-94
2021/03/11 11:12:01;;;;;;;3.67;3.20;;;;;;;;;;6420791;22;20397;-94
2021/03/11 11:14:43;;;;;;;5.07;3.63;;;;;;;;;;6418724;22;20853;-94
2021/03/11 11:17:10;;;;;;;3.27;2.90;;;;;;;;;;6422807;22;20440;-94
2021/03/11 11:19:36;;;;;;;4.27;3.80;;;;;;;;;;6419954;22;20508;-91
2021/03/11 11:22:02;;;;;;;6.10;3.30;;;;;;;;;;6420171;22;20448;-92
2021/03/11 11:24:28;;;;;;;4.30;3.87;;;;;;;;;;6420664;22;20409;-93
2021/03/11 11:26:58;;;;;;;2.50;2.30;;;;;;;;;;6420421;22;20381;-93
2021/03/11 11:29:30;;;;;;;4.07;2.47;;;;;;;;;;6424024;22;20393;-95
2021/03/11 11:32:14;;;;;;;4.30;3.90;;;;;;;;;;6402032;22;20488;-95
2021/03/11 11:34:41;;;;;;;6.20;3.30;;;;;;;;;;6387204;22;21234;-92
2021/03/11 11:37:07;;;;;;;5.80;5.20;;;;;;;;;;6382295;22;20418;-89
2021/03/11 11:39:33;;;;;;;5.10;3.50;;;;;;;;;;6380462;22;20409;-90
2021/03/11 11:41:59;;;;;;;3.70;3.40;;;;;;;;;;6379161;22;20464;-91
2021/03/11 11:44:33;;;;;;;5.07;4.30;;;;;;;;;;6381085;22;20435;-95
2021/03/11 11:46:59;;;;;;;3.37;3.07;;;;;;;;;;6385132;22;20413;-95
2021/03/11 11:49:25;;;;;;;3.40;3.10;;;;;;;;;;6386069;22;20436;-91
2021/03/11 11:51:52;;;;;;;4.67;4.23;;;;;;;;;;6380217;22;20402;-90
2021/03/11 11:54:18;;;;;;;5.50;4.73;;;;;;;;;;6381953;22;20414;-90
2021/03/11 11:56:44;;;;;;;6.90;4.13;;;;;;;;;;6381057;22;20461;-90
2021/03/11 11:59:10;;;;;;;6.90;4.97;;;;;;;;;;6381648;22;20463;-89
2021/03/11 12:01:36;;;;;;;5.23;4.20;;;;;;;;;;6378680;22;20469;-93
2021/03/11 12:04:02;;;;;;;6.60;4.10;;;;;;;;;;6382459;22;20406;-91
2021/03/11 12:06:28;;;;;;;4.90;4.10;;;;;;;;;;6380311;22;20410;-92
2021/03/11 12:08:55;;;;;;;3.90;3.50;;;;;;;;;;6381507;22;20403;-94
2021/03/11 12:11:21;;;;;;;4.50;3.93;;;;;;;;;;6381141;22;20409;-93
2021/03/11 12:13:47;;;;;;;3.83;3.53;;;;;;;;;;6381111;22;20481;-96
2021/03/11 12:16:13;;;;;;;6.70;3.57;;;;;;;;;;6380868;22;20414;-93
2021/03/11 12:18:39;;;;;;;5.00;3.97;;;;;;;;;;6380617;22;20493;-93
2021/03/11 12:21:05;;;;;;;5.47;4.40;;;;;;;;;;6379199;22;20429;-91
2021/03/11 12:23:31;;;;;;;4.57;4.00;;;;;;;;;;6381802;22;20406;-93
2021/03/11 12:26:00;;;;;;;8.30;4.60;;;;;;;;;;6381952;22;20412;-94
2021/03/11 12:28:26;;;;;;;8.57;4.00;;;;;;;;;;6380979;22;20949;-90
2021/03/11 12:30:52;;;;;;;3.57;3.27;;;;;;;;;;6380692;22;20410;-95
2021/03/11 12:33:18;;;;;;;4.10;3.63;;;;;;;;;;6383865;22;20479;-93
2021/03/11 12:35:47;;;;;;;5.60;3.83;;;;;;;;;;6385274;22;20394;-96
2021/03/11 12:38:14;;;;;;;4.37;3.97;;;;;;;;;;6383203;22;20402;-91
2021/03/11 12:40:40;;;;;;;5.03;4.40;;;;;;;;;;6382727;22;20475;-91
2021/03/11 12:43:07;;;;;;;4.10;3.70;;;;;;;;;;6381158;22;20453;-92
2021/03/11 12:45:33;;;;;;;5.43;4.00;;;;;;;;;;6382695;22;20398;-92
2021/03/11 12:48:00;;;;;;;3.83;3.40;;;;;;;;;;6387294;22;20386;-93
2021/03/11 12:50:26;;;;;;;4.80;4.30;;;;;;;;;;6389499;22;20402;-94
2021/03/11 12:52:52;;;;;;;13.30;8.13;;;;;;;;;;6381179;22;20504;-91
2021/03/11 12:55:18;;;;;;;7.90;5.90;;;;;;;;;;6381894;22;20406;-93
2021/03/11 12:57:45;;;;;;;4.73;4.33;;;;;;;;;;6382827;22;20403;-91
2021/03/11 13:00:13;;;;;;;5.80;5.00;;;;;;;;;;6382672;22;20402;-90
2021/03/11 13:02:40;;;;;;;7.03;5.23;;;;;;;;;;6378694;22;20458;-95
2021/03/11 13:05:07;;;;;;;5.00;4.10;;;;;;;;;;6387070;22;20402;-90
2021/03/11 13:07:43;;;;;;;4.50;4.10;;;;;;;;;;6383658;22;20389;-94
2021/03/11 13:10:09;;;;;;;6.63;5.10;;;;;;;;;;6386250;22;20405;-91
2021/03/11 13:12:35;;;;;;;5.73;4.60;;;;;;;;;;6385048;22;20455;-93
2021/03/11 13:15:01;;;;;;;4.83;4.33;;;;;;;;;;6384766;22;20410;-90
2021/03/11 13:17:28;;;;;;;5.33;4.20;;;;;;;;;;6382048;22;20723;-91
2021/03/11 13:19:54;;;;;;;7.90;4.90;;;;;;;;;;6380891;22;20429;-91
2021/03/11 13:22:20;;;;;;;5.73;5.00;;;;;;;;;;6378803;22;21016;-91
2021/03/11 13:24:46;;;;;;;5.80;4.67;;;;;;;;;;6379373;22;20402;-91
2021/03/11 13:27:12;;;;;;;4.77;4.10;;;;;;;;;;6380319;22;20455;-91
2021/03/11 13:29:38;;;;;;;4.70;4.20;;;;;;;;;;6380909;22;20481;-92
2021/03/11 13:32:05;;;;;;;7.83;6.27;;;;;;;;;;6383520;22;20462;-90
2021/03/11 13:34:32;;;;;;;7.30;5.17;;;;;;;;;;6384866;22;20883;-92
2021/03/11 13:36:58;;;;;;;5.60;4.83;;;;;;;;;;6385276;22;20784;-91
2021/03/11 13:39:27;;;;;;;6.33;4.73;;;;;;;;;;6383863;22;20407;-91
2021/03/11 13:41:53;;;;;;;6.63;4.83;;;;;;;;;;6379524;22;20450;-91
2021/03/11 13:44:19;;;;;;;7.73;6.40;;;;;;;;;;6382586;22;20405;-93
2021/03/11 13:46:47;;;;;;;4.73;4.13;;;;;;;;;;6385954;22;20406;-92
2021/03/11 13:49:13;;;;;;;5.60;4.47;;;;;;;;;;6384767;22;20462;-95
2021/03/11 13:51:40;;;;;;;7.17;5.37;;;;;;;;;;6384427;22;20402;-92
2021/03/11 13:54:08;;;;;;;5.50;4.50;;;;;;;;;;6380934;22;20428;-94
2021/03/11 13:56:34;;;;;;;5.53;4.53;;;;;;;;;;6379180;22;20426;-94
2021/03/11 13:59:02;;;;;;;8.43;4.63;;;;;;;;;;6379631;22;20481;-93
2021/03/11 14:01:28;;;;;;;5.47;4.73;;;;;;;;;;6379336;22;20509;-92
2021/03/11 14:03:54;;;;;;;6.40;5.07;;;;;;;;;;6379296;22;20409;-91
2021/03/11 14:06:20;;;;;;;5.20;4.70;;;;;;;;;;6376717;22;20509;-92
2021/03/11 14:08:47;;;;;;;6.03;5.10;;;;;;;;;;6378277;22;20970;-91
2021/03/11 14:11:13;;;;;;;5.57;5.07;;;;;;;;;;6379049;22;20414;-92
2021/03/11 14:13:39;;;;;;;5.03;4.53;;;;;;;;;;6382134;22;20407;-92
2021/03/11 14:16:05;;;;;;;5.60;4.67;;;;;;;;;;6378132;22;20412;-91
2021/03/11 14:18:31;;;;;;;6.30;4.93;;;;;;;;;;6379565;22;20417;-91
2021/03/11 14:20:57;;;;;;;7.80;5.03;;;;;;;;;;6378136;22;20410;-92
2021/03/11 14:23:23;;;;;;;5.70;4.63;;;;;;;;;;6380137;22;20402;-92
2021/03/11 14:25:50;;;;;;;7.40;5.50;;;;;;;;;;6376844;22;20504;-92
2021/03/11 14:28:16;;;;;;;5.30;4.43;;;;;;;;;;6378762;22;20416;-92
2021/03/11 14:30:42;;;;;;;4.73;4.30;;;;;;;;;;6379953;22;20414;-93
2021/03/11 14:33:08;;;;;;;4.40;4.00;;;;;;;;;;6379206;22;20670;-91
2021/03/11 14:35:35;;;;;;;5.53;4.90;;;;;;;;;;6380839;22;20455;-91
2021/03/11 14:38:01;;;;;;;3.67;3.33;;;;;;;;;;6380677;22;20429;-90
2021/03/11 14:40:27;;;;;;;4.00;3.70;;;;;;;;;;6379562;22;20875;-93
2021/03/11 14:42:54;;;;;;;5.50;4.03;;;;;;;;;;6377232;22;20873;-93
2021/03/11 14:45:20;;;;;;;5.80;5.20;;;;;;;;;;6379320;22;20406;-92
2021/03/11 14:47:46;;;;;;;5.07;4.53;;;;;;;;;;6378336;22;20766;-92
2021/03/11 14:50:12;;;;;;;5.80;5.20;;;;;;;;;;6381323;22;20473;-92
2021/03/11 14:52:38;;;;;;;5.37;4.43;;;;;;;;;;6378758;22;20425;-91
2021/03/11 14:55:05;;;;;;;4.87;4.47;;;;;;;;;;6380560;22;20402;-92
2021/03/11 14:57:31;;;;;;;5.20;4.70;;;;;;;;;;6378935;22;20414;-90
2021/03/11 14:59:57;;;;;;;5.97;4.70;;;;;;;;;;6379948;22;20423;-89